sensor_id;sensor_type;location;lat;lon;timestamp;temperature;humidity
5304;DHT22;2674;49.722;10.892;2023-08-30T00:02:09;12.40;99.90
5304;DHT22;2674;49.722;10.892;2023-08-30T00:04:35;12.40;99.90
5304;DHT22;2674;49.722;10.892;2023-08-30T00:07:02;12.40;99.90
5304;DHT22;2674;49.722;10.892;2023-08-30T00:09:28;12.40;99.90
5304;DHT22;2674;49.722;10.892;2023-08-30T00:11:53;12.40;99.90
5304;DHT22;2674;49.722;10.892;2023-08-30T00:14:19;12.40;99.90
5304;DHT22;2674;49.722;10.892;2023-08-30T00:16:45;12.50;99.90
5304;DHT22;2674;49.722;10.892;2023-08-30T00:19:11;12.50;99.90
5304;DHT22;2674;49.722;10.892;2023-08-30T00:21:38;12.50;99.90
5304;DHT22;2674;49.722;10.892;2023-08-30T00:24:07;12.50;99.90
5304;DHT22;2674;49.722;10.892;2023-08-30T00:26:34;12.60;99.90
5304;DHT22;2674;49.722;10.892;2023-08-30T00:29:02;12.60;99.90
5304;DHT22;2674;49.722;10.892;2023-08-30T00:31:27;12.70;99.90
5304;DHT22;2674;49.722;10.892;2023-08-30T00:33:53;12.70;99.90
5304;DHT22;2674;49.722;10.892;2023-08-30T00:36:19;12.70;99.90
5304;DHT22;2674;49.722;10.892;2023-08-30T00:38:45;12.70;99.90
5304;DHT22;2674;49.722;10.892;2023-08-30T00:41:13;12.70;99.90
5304;DHT22;2674;49.722;10.892;2023-08-30T00:43:39;12.60;99.90
5304;DHT22;2674;49.722;10.892;2023-08-30T00:46:05;12.60;99.90
5304;DHT22;2674;49.722;10.892;2023-08-30T00:48:31;12.60;99.90
5304;DHT22;2674;49.722;10.892;2023-08-30T00:50:56;12.50;99.90
5304;DHT22;2674;49.722;10.892;2023-08-30T00:53:22;12.50;99.90
5304;DHT22;2674;49.722;10.892;2023-08-30T00:55:48;12.40;99.90
5304;DHT22;2674;49.722;10.892;2023-08-30T00:58:14;12.30;99.90
5304;DHT22;2674;49.722;10.892;2023-08-30T01:00:40;12.30;99.90
5304;DHT22;2674;49.722;10.892;2023-08-30T01:03:06;12.20;99.90
5304;DHT22;2674;49.722;10.892;2023-08-30T01:05:35;12.20;99.90
5304;DHT22;2674;49.722;10.892;2023-08-30T01:08:01;12.10;99.90
5304;DHT22;2674;49.722;10.892;2023-08-30T01:11:00;12.10;99.90
5304;DHT22;2674;49.722;10.892;2023-08-30T01:13:30;12.00;99.90
5304;DHT22;2674;49.722;10.892;2023-08-30T01:15:57;11.90;99.90
5304;DHT22;2674;49.722;10.892;2023-08-30T01:18:26;12.00;99.90
5304;DHT22;2674;49.722;10.892;2023-08-30T01:20:54;11.90;99.90
5304;DHT22;2674;49.722;10.892;2023-08-30T01:26:26;11.80;99.90
5304;DHT22;2674;49.722;10.892;2023-08-30T01:33:13;11.70;99.90
5304;DHT22;2674;49.722;10.892;2023-08-30T01:45:20;11.60;99.90
5304;DHT22;2674;49.722;10.892;2023-08-30T01:47:48;11.60;99.90
5304;DHT22;2674;49.722;10.892;2023-08-30T01:50:14;11.60;99.90
5304;DHT22;2674;49.722;10.892;2023-08-30T01:52:40;11.60;99.90
5304;DHT22;2674;49.722;10.892;2023-08-30T01:55:08;11.60;99.90
5304;DHT22;2674;49.722;10.892;2023-08-30T01:57:34;11.70;99.90
5304;DHT22;2674;49.722;10.892;2023-08-30T02:00:00;11.70;99.90
5304;DHT22;2674;49.722;10.892;2023-08-30T02:02:29;11.80;99.90
5304;DHT22;2674;49.722;10.892;2023-08-30T02:04:55;11.80;99.90
5304;DHT22;2674;49.722;10.892;2023-08-30T02:07:28;11.80;99.90
5304;DHT22;2674;49.722;10.892;2023-08-30T02:10:12;11.90;99.90
5304;DHT22;2674;49.722;10.892;2023-08-30T02:12:46;11.90;99.90
5304;DHT22;2674;49.722;10.892;2023-08-30T02:15:13;12.00;99.90
5304;DHT22;2674;49.722;10.892;2023-08-30T02:17:40;12.00;99.90
5304;DHT22;2674;49.722;10.892;2023-08-30T02:20:07;12.10;99.90
5304;DHT22;2674;49.722;10.892;2023-08-30T02:22:33;12.10;99.90
5304;DHT22;2674;49.722;10.892;2023-08-30T02:24:59;12.10;99.90
5304;DHT22;2674;49.722;10.892;2023-08-30T02:27:31;12.10;99.90
5304;DHT22;2674;49.722;10.892;2023-08-30T02:29:57;12.20;99.90
5304;DHT22;2674;49.722;10.892;2023-08-30T02:32:23;12.20;99.90
5304;DHT22;2674;49.722;10.892;2023-08-30T02:34:51;12.20;99.90
5304;DHT22;2674;49.722;10.892;2023-08-30T02:37:17;12.20;99.90
5304;DHT22;2674;49.722;10.892;2023-08-30T02:39:43;12.20;99.90
5304;DHT22;2674;49.722;10.892;2023-08-30T02:42:09;12.30;99.90
5304;DHT22;2674;49.722;10.892;2023-08-30T02:44:34;12.20;99.90
5304;DHT22;2674;49.722;10.892;2023-08-30T02:47:00;12.10;99.90
5304;DHT22;2674;49.722;10.892;2023-08-30T02:49:26;12.10;99.90
5304;DHT22;2674;49.722;10.892;2023-08-30T02:51:52;12.10;99.90
5304;DHT22;2674;49.722;10.892;2023-08-30T02:54:18;12.10;99.90
5304;DHT22;2674;49.722;10.892;2023-08-30T02:56:44;12.10;99.90
5304;DHT22;2674;49.722;10.892;2023-08-30T02:59:10;12.10;99.90
5304;DHT22;2674;49.722;10.892;2023-08-30T03:01:39;12.00;99.90
5304;DHT22;2674;49.722;10.892;2023-08-30T03:04:05;12.00;99.90
5304;DHT22;2674;49.722;10.892;2023-08-30T03:06:35;11.90;99.90
5304;DHT22;2674;49.722;10.892;2023-08-30T03:09:01;11.90;99.90
5304;DHT22;2674;49.722;10.892;2023-08-30T03:11:32;11.90;99.90
5304;DHT22;2674;49.722;10.892;2023-08-30T03:13:57;11.80;99.90
5304;DHT22;2674;49.722;10.892;2023-08-30T03:16:23;11.80;99.90
5304;DHT22;2674;49.722;10.892;2023-08-30T03:18:50;11.70;99.90
5304;DHT22;2674;49.722;10.892;2023-08-30T03:21:16;11.60;99.90
5304;DHT22;2674;49.722;10.892;2023-08-30T03:23:44;11.60;99.90
5304;DHT22;2674;49.722;10.892;2023-08-30T03:26:14;11.60;99.90
5304;DHT22;2674;49.722;10.892;2023-08-30T03:28:41;11.50;99.90
5304;DHT22;2674;49.722;10.892;2023-08-30T03:31:21;11.50;99.90
5304;DHT22;2674;49.722;10.892;2023-08-30T03:33:48;11.50;99.90
5304;DHT22;2674;49.722;10.892;2023-08-30T03:36:15;11.50;99.90
5304;DHT22;2674;49.722;10.892;2023-08-30T03:38:42;11.50;99.90
5304;DHT22;2674;49.722;10.892;2023-08-30T03:41:09;11.50;99.90
5304;DHT22;2674;49.722;10.892;2023-08-30T03:43:35;11.50;99.90
5304;DHT22;2674;49.722;10.892;2023-08-30T03:46:01;11.50;99.90
5304;DHT22;2674;49.722;10.892;2023-08-30T03:48:29;11.50;99.90
5304;DHT22;2674;49.722;10.892;2023-08-30T03:50:55;11.60;99.90
5304;DHT22;2674;49.722;10.892;2023-08-30T03:53:22;11.60;99.90
5304;DHT22;2674;49.722;10.892;2023-08-30T03:55:48;11.60;99.90
5304;DHT22;2674;49.722;10.892;2023-08-30T03:58:13;11.60;99.90
5304;DHT22;2674;49.722;10.892;2023-08-30T04:00:39;11.60;99.90
5304;DHT22;2674;49.722;10.892;2023-08-30T04:03:09;11.70;99.90
5304;DHT22;2674;49.722;10.892;2023-08-30T04:05:36;11.70;99.90
5304;DHT22;2674;49.722;10.892;2023-08-30T04:08:03;11.70;99.90
5304;DHT22;2674;49.722;10.892;2023-08-30T04:10:29;11.70;99.90
5304;DHT22;2674;49.722;10.892;2023-08-30T04:12:55;11.70;99.90
5304;DHT22;2674;49.722;10.892;2023-08-30T04:15:21;11.80;99.90
5304;DHT22;2674;49.722;10.892;2023-08-30T04:17:47;11.80;99.90
5304;DHT22;2674;49.722;10.892;2023-08-30T04:20:13;11.80;99.90
5304;DHT22;2674;49.722;10.892;2023-08-30T04:22:39;11.80;99.90
5304;DHT22;2674;49.722;10.892;2023-08-30T04:25:05;11.80;99.90
5304;DHT22;2674;49.722;10.892;2023-08-30T04:27:33;11.80;99.90
5304;DHT22;2674;49.722;10.892;2023-08-30T04:29:59;11.80;99.90
5304;DHT22;2674;49.722;10.892;2023-08-30T04:32:24;11.90;99.90
5304;DHT22;2674;49.722;10.892;2023-08-30T04:34:50;11.80;99.90
5304;DHT22;2674;49.722;10.892;2023-08-30T04:37:16;11.80;99.90
5304;DHT22;2674;49.722;10.892;2023-08-30T04:39:42;11.90;99.90
5304;DHT22;2674;49.722;10.892;2023-08-30T04:42:08;11.90;99.90
5304;DHT22;2674;49.722;10.892;2023-08-30T04:44:33;11.90;99.90
5304;DHT22;2674;49.722;10.892;2023-08-30T04:46:59;11.90;99.90
5304;DHT22;2674;49.722;10.892;2023-08-30T04:49:27;11.90;99.90
5304;DHT22;2674;49.722;10.892;2023-08-30T04:51:54;11.90;99.90
5304;DHT22;2674;49.722;10.892;2023-08-30T04:54:20;11.90;99.90
5304;DHT22;2674;49.722;10.892;2023-08-30T04:56:46;11.90;99.90
5304;DHT22;2674;49.722;10.892;2023-08-30T04:59:12;11.80;99.90
5304;DHT22;2674;49.722;10.892;2023-08-30T05:01:37;11.80;99.90
5304;DHT22;2674;49.722;10.892;2023-08-30T05:04:04;11.80;99.90
5304;DHT22;2674;49.722;10.892;2023-08-30T05:06:31;11.80;99.90
5304;DHT22;2674;49.722;10.892;2023-08-30T05:08:57;11.80;99.90
5304;DHT22;2674;49.722;10.892;2023-08-30T05:11:23;11.90;99.90
5304;DHT22;2674;49.722;10.892;2023-08-30T05:13:49;11.90;99.90
5304;DHT22;2674;49.722;10.892;2023-08-30T05:16:15;11.90;99.90
5304;DHT22;2674;49.722;10.892;2023-08-30T05:18:41;12.00;99.90
5304;DHT22;2674;49.722;10.892;2023-08-30T05:21:07;12.00;99.90
5304;DHT22;2674;49.722;10.892;2023-08-30T05:23:32;12.00;99.90
5304;DHT22;2674;49.722;10.892;2023-08-30T05:25:58;12.00;99.90
5304;DHT22;2674;49.722;10.892;2023-08-30T05:28:24;12.10;99.90
5304;DHT22;2674;49.722;10.892;2023-08-30T05:30:50;12.10;99.90
5304;DHT22;2674;49.722;10.892;2023-08-30T05:33:16;12.20;99.90
5304;DHT22;2674;49.722;10.892;2023-08-30T05:35:42;12.30;99.90
5304;DHT22;2674;49.722;10.892;2023-08-30T05:38:08;12.30;99.90
5304;DHT22;2674;49.722;10.892;2023-08-30T05:40:33;12.50;99.90
5304;DHT22;2674;49.722;10.892;2023-08-30T05:43:00;12.50;99.90
5304;DHT22;2674;49.722;10.892;2023-08-30T05:45:26;12.50;99.90
5304;DHT22;2674;49.722;10.892;2023-08-30T05:47:52;12.50;99.90
5304;DHT22;2674;49.722;10.892;2023-08-30T05:50:17;12.60;99.90
5304;DHT22;2674;49.722;10.892;2023-08-30T05:52:43;12.60;99.90
5304;DHT22;2674;49.722;10.892;2023-08-30T05:55:10;12.60;99.90
5304;DHT22;2674;49.722;10.892;2023-08-30T05:57:37;12.70;99.90
5304;DHT22;2674;49.722;10.892;2023-08-30T06:00:03;12.70;99.90
5304;DHT22;2674;49.722;10.892;2023-08-30T06:02:30;12.80;99.90
5304;DHT22;2674;49.722;10.892;2023-08-30T06:04:56;12.80;99.90
5304;DHT22;2674;49.722;10.892;2023-08-30T06:07:22;12.80;99.90
5304;DHT22;2674;49.722;10.892;2023-08-30T06:09:48;12.80;99.90
5304;DHT22;2674;49.722;10.892;2023-08-30T06:12:15;12.90;99.90
5304;DHT22;2674;49.722;10.892;2023-08-30T06:14:40;13.00;99.90
5304;DHT22;2674;49.722;10.892;2023-08-30T06:17:07;13.10;99.90
5304;DHT22;2674;49.722;10.892;2023-08-30T06:19:33;13.10;99.90
5304;DHT22;2674;49.722;10.892;2023-08-30T06:21:59;13.20;99.90
5304;DHT22;2674;49.722;10.892;2023-08-30T06:24:25;13.20;99.90
5304;DHT22;2674;49.722;10.892;2023-08-30T06:26:51;13.30;99.90
5304;DHT22;2674;49.722;10.892;2023-08-30T06:29:16;13.30;99.90
5304;DHT22;2674;49.722;10.892;2023-08-30T06:31:42;13.30;99.90
5304;DHT22;2674;49.722;10.892;2023-08-30T06:34:09;13.30;99.90
5304;DHT22;2674;49.722;10.892;2023-08-30T06:36:35;13.40;99.90
5304;DHT22;2674;49.722;10.892;2023-08-30T06:39:01;13.40;99.90
5304;DHT22;2674;49.722;10.892;2023-08-30T06:41:27;13.50;99.90
5304;DHT22;2674;49.722;10.892;2023-08-30T06:43:53;13.50;99.90
5304;DHT22;2674;49.722;10.892;2023-08-30T06:46:19;13.60;99.90
5304;DHT22;2674;49.722;10.892;2023-08-30T06:48:45;13.60;99.90
5304;DHT22;2674;49.722;10.892;2023-08-30T06:51:10;13.60;99.90
5304;DHT22;2674;49.722;10.892;2023-08-30T06:53:36;13.70;99.90
5304;DHT22;2674;49.722;10.892;2023-08-30T06:56:02;13.70;99.90
5304;DHT22;2674;49.722;10.892;2023-08-30T06:58:29;13.80;99.90
5304;DHT22;2674;49.722;10.892;2023-08-30T07:00:57;13.90;99.90
5304;DHT22;2674;49.722;10.892;2023-08-30T07:03:23;14.00;99.90
5304;DHT22;2674;49.722;10.892;2023-08-30T07:05:51;14.10;99.90
5304;DHT22;2674;49.722;10.892;2023-08-30T07:08:17;14.20;99.90
5304;DHT22;2674;49.722;10.892;2023-08-30T07:10:43;14.30;99.90
5304;DHT22;2674;49.722;10.892;2023-08-30T07:13:09;14.30;99.90
5304;DHT22;2674;49.722;10.892;2023-08-30T07:15:45;14.40;99.90
5304;DHT22;2674;49.722;10.892;2023-08-30T07:18:12;14.50;99.90
5304;DHT22;2674;49.722;10.892;2023-08-30T07:20:39;14.70;99.90
5304;DHT22;2674;49.722;10.892;2023-08-30T07:23:05;14.80;99.90
5304;DHT22;2674;49.722;10.892;2023-08-30T07:25:30;15.00;99.90
5304;DHT22;2674;49.722;10.892;2023-08-30T07:28:01;15.10;99.90
5304;DHT22;2674;49.722;10.892;2023-08-30T07:30:27;15.20;99.90
5304;DHT22;2674;49.722;10.892;2023-08-30T07:32:53;15.30;99.90
5304;DHT22;2674;49.722;10.892;2023-08-30T07:35:19;15.30;99.90
5304;DHT22;2674;49.722;10.892;2023-08-30T07:37:45;15.30;99.90
5304;DHT22;2674;49.722;10.892;2023-08-30T07:40:11;15.30;99.90
5304;DHT22;2674;49.722;10.892;2023-08-30T07:42:39;15.30;99.90
5304;DHT22;2674;49.722;10.892;2023-08-30T07:45:05;15.40;99.90
5304;DHT22;2674;49.722;10.892;2023-08-30T07:47:31;15.40;99.90
5304;DHT22;2674;49.722;10.892;2023-08-30T07:49:57;15.50;99.90
5304;DHT22;2674;49.722;10.892;2023-08-30T07:52:23;15.50;99.90
5304;DHT22;2674;49.722;10.892;2023-08-30T07:54:52;15.70;99.90
5304;DHT22;2674;49.722;10.892;2023-08-30T07:57:18;15.80;99.90
5304;DHT22;2674;49.722;10.892;2023-08-30T07:59:43;16.00;99.90
5304;DHT22;2674;49.722;10.892;2023-08-30T08:02:09;16.10;99.90
5304;DHT22;2674;49.722;10.892;2023-08-30T08:04:35;16.20;99.90
5304;DHT22;2674;49.722;10.892;2023-08-30T08:07:02;16.40;99.90
5304;DHT22;2674;49.722;10.892;2023-08-30T08:09:28;16.50;99.90
5304;DHT22;2674;49.722;10.892;2023-08-30T08:11:54;16.50;99.90
5304;DHT22;2674;49.722;10.892;2023-08-30T08:14:22;16.60;80.90
5304;DHT22;2674;49.722;10.892;2023-08-30T08:16:48;16.70;13.10
5304;DHT22;2674;49.722;10.892;2023-08-30T08:19:14;16.70;27.90
5304;DHT22;2674;49.722;10.892;2023-08-30T08:21:40;16.80;93.90
5304;DHT22;2674;49.722;10.892;2023-08-30T08:24:06;16.70;34.90
5304;DHT22;2674;49.722;10.892;2023-08-30T08:26:32;16.70;8.30
5304;DHT22;2674;49.722;10.892;2023-08-30T08:28:57;16.50;10.30
5304;DHT22;2674;49.722;10.892;2023-08-30T08:31:23;16.40;99.90
5304;DHT22;2674;49.722;10.892;2023-08-30T08:34:11;16.50;89.40
5304;DHT22;2674;49.722;10.892;2023-08-30T08:36:39;16.60;46.80
5304;DHT22;2674;49.722;10.892;2023-08-30T08:39:06;16.80;43.50
5304;DHT22;2674;49.722;10.892;2023-08-30T08:41:41;17.00;3.30
5304;DHT22;2674;49.722;10.892;2023-08-30T08:44:09;17.20;1.00
5304;DHT22;2674;49.722;10.892;2023-08-30T08:46:39;17.30;1.00
5304;DHT22;2674;49.722;10.892;2023-08-30T08:51:35;17.30;1.00
5304;DHT22;2674;49.722;10.892;2023-08-30T08:54:03;17.20;1.00
5304;DHT22;2674;49.722;10.892;2023-08-30T08:56:33;17.30;1.00
5304;DHT22;2674;49.722;10.892;2023-08-30T08:59:00;17.40;1.00
5304;DHT22;2674;49.722;10.892;2023-08-30T09:01:26;17.50;1.00
5304;DHT22;2674;49.722;10.892;2023-08-30T09:03:53;17.60;1.00
5304;DHT22;2674;49.722;10.892;2023-08-30T09:06:19;17.70;1.00
5304;DHT22;2674;49.722;10.892;2023-08-30T09:08:45;17.80;1.00
5304;DHT22;2674;49.722;10.892;2023-08-30T09:11:11;17.70;1.00
5304;DHT22;2674;49.722;10.892;2023-08-30T09:13:37;17.70;1.00
5304;DHT22;2674;49.722;10.892;2023-08-30T09:16:02;17.70;1.00
5304;DHT22;2674;49.722;10.892;2023-08-30T09:18:36;17.60;1.00
5304;DHT22;2674;49.722;10.892;2023-08-30T09:21:09;17.60;1.00
5304;DHT22;2674;49.722;10.892;2023-08-30T09:23:35;17.70;1.00
5304;DHT22;2674;49.722;10.892;2023-08-30T09:26:01;17.90;1.00
5304;DHT22;2674;49.722;10.892;2023-08-30T09:28:28;18.00;1.00
5304;DHT22;2674;49.722;10.892;2023-08-30T09:30:54;18.20;1.00
5304;DHT22;2674;49.722;10.892;2023-08-30T09:33:30;18.30;1.00
5304;DHT22;2674;49.722;10.892;2023-08-30T09:36:00;18.40;1.00
5304;DHT22;2674;49.722;10.892;2023-08-30T09:38:26;18.60;99.90
5304;DHT22;2674;49.722;10.892;2023-08-30T09:41:02;18.70;99.90
5304;DHT22;2674;49.722;10.892;2023-08-30T09:43:28;18.80;14.60
5304;DHT22;2674;49.722;10.892;2023-08-30T09:45:54;18.80;1.00
5304;DHT22;2674;49.722;10.892;2023-08-30T09:48:27;18.80;1.00
5304;DHT22;2674;49.722;10.892;2023-08-30T09:50:54;18.80;1.00
5304;DHT22;2674;49.722;10.892;2023-08-30T09:53:25;18.90;1.00
5304;DHT22;2674;49.722;10.892;2023-08-30T09:55:55;19.00;99.90
5304;DHT22;2674;49.722;10.892;2023-08-30T09:58:24;19.00;1.00
5304;DHT22;2674;49.722;10.892;2023-08-30T10:00:53;19.10;99.90
5304;DHT22;2674;49.722;10.892;2023-08-30T10:03:20;19.10;99.90
5304;DHT22;2674;49.722;10.892;2023-08-30T10:05:46;19.10;1.00
5304;DHT22;2674;49.722;10.892;2023-08-30T10:08:14;19.00;1.00
5304;DHT22;2674;49.722;10.892;2023-08-30T10:10:40;19.00;1.00
5304;DHT22;2674;49.722;10.892;2023-08-30T10:13:06;19.10;1.00
5304;DHT22;2674;49.722;10.892;2023-08-30T10:15:35;19.20;99.90
5304;DHT22;2674;49.722;10.892;2023-08-30T10:18:02;19.40;99.90
5304;DHT22;2674;49.722;10.892;2023-08-30T10:20:29;19.50;99.90
5304;DHT22;2674;49.722;10.892;2023-08-30T10:22:56;19.60;68.00
5304;DHT22;2674;49.722;10.892;2023-08-30T10:25:26;19.70;1.00
5304;DHT22;2674;49.722;10.892;2023-08-30T10:27:53;19.80;18.60
5304;DHT22;2674;49.722;10.892;2023-08-30T10:30:21;20.00;99.90
5304;DHT22;2674;49.722;10.892;2023-08-30T10:32:47;20.00;99.90
5304;DHT22;2674;49.722;10.892;2023-08-30T10:35:14;20.20;1.00
5304;DHT22;2674;49.722;10.892;2023-08-30T10:37:41;20.30;1.00
5304;DHT22;2674;49.722;10.892;2023-08-30T10:40:08;20.30;1.00
5304;DHT22;2674;49.722;10.892;2023-08-30T10:42:34;20.20;1.00
5304;DHT22;2674;49.722;10.892;2023-08-30T10:45:04;20.20;52.10
5304;DHT22;2674;49.722;10.892;2023-08-30T10:47:31;20.40;1.00
5304;DHT22;2674;49.722;10.892;2023-08-30T10:49:59;20.60;1.00
5304;DHT22;2674;49.722;10.892;2023-08-30T10:52:30;20.70;1.00
5304;DHT22;2674;49.722;10.892;2023-08-30T10:55:10;20.70;1.00
5304;DHT22;2674;49.722;10.892;2023-08-30T10:57:37;20.60;1.00
5304;DHT22;2674;49.722;10.892;2023-08-30T11:02:32;20.70;1.00
5304;DHT22;2674;49.722;10.892;2023-08-30T11:04:59;20.60;1.00
5304;DHT22;2674;49.722;10.892;2023-08-30T11:07:27;20.50;1.00
5304;DHT22;2674;49.722;10.892;2023-08-30T11:09:53;20.30;1.00
5304;DHT22;2674;49.722;10.892;2023-08-30T11:12:19;20.20;1.00
5304;DHT22;2674;49.722;10.892;2023-08-30T11:14:52;20.10;1.00
5304;DHT22;2674;49.722;10.892;2023-08-30T11:17:19;20.10;1.00
5304;DHT22;2674;49.722;10.892;2023-08-30T11:19:45;20.00;1.00
5304;DHT22;2674;49.722;10.892;2023-08-30T11:22:15;19.90;1.00
5304;DHT22;2674;49.722;10.892;2023-08-30T11:24:43;19.90;1.00
5304;DHT22;2674;49.722;10.892;2023-08-30T11:27:09;19.80;99.70
5304;DHT22;2674;49.722;10.892;2023-08-30T11:29:35;19.80;99.90
5304;DHT22;2674;49.722;10.892;2023-08-30T11:32:01;19.80;99.90
5304;DHT22;2674;49.722;10.892;2023-08-30T11:34:27;19.80;99.90
5304;DHT22;2674;49.722;10.892;2023-08-30T11:36:53;19.80;99.90
5304;DHT22;2674;49.722;10.892;2023-08-30T11:39:20;19.70;99.90
5304;DHT22;2674;49.722;10.892;2023-08-30T11:41:48;19.70;1.00
5304;DHT22;2674;49.722;10.892;2023-08-30T11:44:16;19.70;99.90
5304;DHT22;2674;49.722;10.892;2023-08-30T11:46:42;19.70;99.90
5304;DHT22;2674;49.722;10.892;2023-08-30T11:49:08;19.70;99.90
5304;DHT22;2674;49.722;10.892;2023-08-30T11:51:34;19.70;99.90
5304;DHT22;2674;49.722;10.892;2023-08-30T11:54:00;19.70;99.90
5304;DHT22;2674;49.722;10.892;2023-08-30T11:56:29;19.70;99.90
5304;DHT22;2674;49.722;10.892;2023-08-30T11:58:55;19.60;1.00
5304;DHT22;2674;49.722;10.892;2023-08-30T12:01:21;19.70;1.00
5304;DHT22;2674;49.722;10.892;2023-08-30T12:03:47;19.70;99.90
5304;DHT22;2674;49.722;10.892;2023-08-30T12:06:16;19.60;1.00
5304;DHT22;2674;49.722;10.892;2023-08-30T12:08:42;19.60;1.00
5304;DHT22;2674;49.722;10.892;2023-08-30T12:11:20;19.70;96.90
5304;DHT22;2674;49.722;10.892;2023-08-30T12:13:46;19.80;84.50
5304;DHT22;2674;49.722;10.892;2023-08-30T12:16:17;19.90;1.00
5304;DHT22;2674;49.722;10.892;2023-08-30T12:18:43;19.90;1.00
5304;DHT22;2674;49.722;10.892;2023-08-30T12:21:09;20.10;1.00
5304;DHT22;2674;49.722;10.892;2023-08-30T12:23:35;20.10;1.00
5304;DHT22;2674;49.722;10.892;2023-08-30T12:26:09;20.10;1.00
5304;DHT22;2674;49.722;10.892;2023-08-30T12:28:37;20.00;1.00
5304;DHT22;2674;49.722;10.892;2023-08-30T12:31:04;20.00;32.80
5304;DHT22;2674;49.722;10.892;2023-08-30T12:33:30;20.10;11.60
5304;DHT22;2674;49.722;10.892;2023-08-30T12:35:57;20.00;1.00
5304;DHT22;2674;49.722;10.892;2023-08-30T12:38:24;20.00;11.80
5304;DHT22;2674;49.722;10.892;2023-08-30T12:40:52;19.90;99.90
5304;DHT22;2674;49.722;10.892;2023-08-30T12:43:19;19.90;99.90
5304;DHT22;2674;49.722;10.892;2023-08-30T12:45:48;20.00;99.90
5304;DHT22;2674;49.722;10.892;2023-08-30T12:48:16;20.10;99.90
5304;DHT22;2674;49.722;10.892;2023-08-30T12:50:44;20.30;99.90
5304;DHT22;2674;49.722;10.892;2023-08-30T12:53:11;20.40;9.00
5304;DHT22;2674;49.722;10.892;2023-08-30T12:55:37;20.60;1.00
5304;DHT22;2674;49.722;10.892;2023-08-30T12:58:07;20.70;1.00
5304;DHT22;2674;49.722;10.892;2023-08-30T13:00:33;20.80;1.00
5304;DHT22;2674;49.722;10.892;2023-08-30T13:02:59;20.90;1.00
5304;DHT22;2674;49.722;10.892;2023-08-30T13:05:26;20.90;1.00
5304;DHT22;2674;49.722;10.892;2023-08-30T13:07:52;21.00;1.00
5304;DHT22;2674;49.722;10.892;2023-08-30T13:10:18;21.00;1.00
5304;DHT22;2674;49.722;10.892;2023-08-30T13:12:44;20.90;1.00
5304;DHT22;2674;49.722;10.892;2023-08-30T13:15:11;20.80;1.00
5304;DHT22;2674;49.722;10.892;2023-08-30T13:17:37;20.70;1.00
5304;DHT22;2674;49.722;10.892;2023-08-30T13:20:03;20.50;1.00
5304;DHT22;2674;49.722;10.892;2023-08-30T13:22:30;20.50;1.00
5304;DHT22;2674;49.722;10.892;2023-08-30T13:24:56;20.50;1.00
5304;DHT22;2674;49.722;10.892;2023-08-30T13:27:22;20.50;1.00
5304;DHT22;2674;49.722;10.892;2023-08-30T13:29:48;20.60;1.00
5304;DHT22;2674;49.722;10.892;2023-08-30T13:32:14;20.70;1.00
5304;DHT22;2674;49.722;10.892;2023-08-30T13:34:43;20.80;1.00
5304;DHT22;2674;49.722;10.892;2023-08-30T13:37:12;21.00;1.00
5304;DHT22;2674;49.722;10.892;2023-08-30T13:39:42;21.20;1.00
5304;DHT22;2674;49.722;10.892;2023-08-30T13:42:08;21.30;1.00
5304;DHT22;2674;49.722;10.892;2023-08-30T13:44:34;21.40;1.00
5304;DHT22;2674;49.722;10.892;2023-08-30T13:47:06;21.40;1.00
5304;DHT22;2674;49.722;10.892;2023-08-30T13:49:32;21.50;1.00
5304;DHT22;2674;49.722;10.892;2023-08-30T13:51:58;21.70;1.00
5304;DHT22;2674;49.722;10.892;2023-08-30T13:54:25;21.70;1.00
5304;DHT22;2674;49.722;10.892;2023-08-30T13:56:51;21.70;1.00
5304;DHT22;2674;49.722;10.892;2023-08-30T13:59:17;21.70;1.00
5304;DHT22;2674;49.722;10.892;2023-08-30T14:01:43;21.70;1.00
5304;DHT22;2674;49.722;10.892;2023-08-30T14:04:09;21.70;1.00
5304;DHT22;2674;49.722;10.892;2023-08-30T14:06:35;21.80;1.00
5304;DHT22;2674;49.722;10.892;2023-08-30T14:09:01;21.90;1.00
5304;DHT22;2674;49.722;10.892;2023-08-30T14:11:27;21.90;1.00
5304;DHT22;2674;49.722;10.892;2023-08-30T14:13:52;22.00;1.00
5304;DHT22;2674;49.722;10.892;2023-08-30T14:16:18;22.00;1.00
5304;DHT22;2674;49.722;10.892;2023-08-30T14:18:44;22.10;1.00
5304;DHT22;2674;49.722;10.892;2023-08-30T14:21:10;22.10;1.00
5304;DHT22;2674;49.722;10.892;2023-08-30T14:23:36;22.00;1.00
5304;DHT22;2674;49.722;10.892;2023-08-30T14:26:06;21.90;1.00
5304;DHT22;2674;49.722;10.892;2023-08-30T14:28:38;21.90;1.00
5304;DHT22;2674;49.722;10.892;2023-08-30T14:31:09;21.70;1.00
5304;DHT22;2674;49.722;10.892;2023-08-30T14:33:36;21.60;1.00
5304;DHT22;2674;49.722;10.892;2023-08-30T14:36:01;21.40;1.00
5304;DHT22;2674;49.722;10.892;2023-08-30T14:38:28;21.30;1.00
5304;DHT22;2674;49.722;10.892;2023-08-30T14:40:55;21.20;1.00
5304;DHT22;2674;49.722;10.892;2023-08-30T14:43:21;21.20;1.00
5304;DHT22;2674;49.722;10.892;2023-08-30T14:45:47;21.10;1.00
5304;DHT22;2674;49.722;10.892;2023-08-30T14:48:13;21.10;1.00
5304;DHT22;2674;49.722;10.892;2023-08-30T14:50:39;21.00;1.00
5304;DHT22;2674;49.722;10.892;2023-08-30T14:53:04;21.10;1.00
5304;DHT22;2674;49.722;10.892;2023-08-30T14:55:32;21.00;1.00
5304;DHT22;2674;49.722;10.892;2023-08-30T14:57:58;21.00;1.00
5304;DHT22;2674;49.722;10.892;2023-08-30T15:00:24;21.10;1.00
5304;DHT22;2674;49.722;10.892;2023-08-30T15:02:50;20.90;1.00
5304;DHT22;2674;49.722;10.892;2023-08-30T15:05:16;21.00;1.00
5304;DHT22;2674;49.722;10.892;2023-08-30T15:07:41;21.00;1.00
5304;DHT22;2674;49.722;10.892;2023-08-30T15:10:07;21.00;1.00
5304;DHT22;2674;49.722;10.892;2023-08-30T15:12:33;21.00;1.00
5304;DHT22;2674;49.722;10.892;2023-08-30T15:14:59;21.10;1.00
5304;DHT22;2674;49.722;10.892;2023-08-30T15:17:25;21.20;1.00
5304;DHT22;2674;49.722;10.892;2023-08-30T15:19:51;21.30;1.00
5304;DHT22;2674;49.722;10.892;2023-08-30T15:22:19;21.30;1.00
5304;DHT22;2674;49.722;10.892;2023-08-30T15:24:45;21.30;1.00
5304;DHT22;2674;49.722;10.892;2023-08-30T15:27:11;21.30;1.00
5304;DHT22;2674;49.722;10.892;2023-08-30T15:29:37;21.20;1.00
5304;DHT22;2674;49.722;10.892;2023-08-30T15:32:03;21.20;1.00
5304;DHT22;2674;49.722;10.892;2023-08-30T15:34:29;21.20;1.00
5304;DHT22;2674;49.722;10.892;2023-08-30T15:36:54;21.30;1.00
5304;DHT22;2674;49.722;10.892;2023-08-30T15:39:20;21.50;1.00
5304;DHT22;2674;49.722;10.892;2023-08-30T15:41:46;21.60;1.00
5304;DHT22;2674;49.722;10.892;2023-08-30T15:44:15;21.70;1.00
5304;DHT22;2674;49.722;10.892;2023-08-30T15:46:41;21.70;1.00
5304;DHT22;2674;49.722;10.892;2023-08-30T15:49:06;21.70;1.00
5304;DHT22;2674;49.722;10.892;2023-08-30T15:51:34;21.80;1.00
5304;DHT22;2674;49.722;10.892;2023-08-30T15:54:00;21.90;1.00
5304;DHT22;2674;49.722;10.892;2023-08-30T15:56:26;22.00;1.00
5304;DHT22;2674;49.722;10.892;2023-08-30T15:58:51;22.00;1.00
5304;DHT22;2674;49.722;10.892;2023-08-30T16:01:17;21.90;1.00
5304;DHT22;2674;49.722;10.892;2023-08-30T16:03:45;21.80;1.00
5304;DHT22;2674;49.722;10.892;2023-08-30T16:06:11;21.70;1.00
5304;DHT22;2674;49.722;10.892;2023-08-30T16:08:37;21.60;1.00
5304;DHT22;2674;49.722;10.892;2023-08-30T16:11:03;21.60;1.00
5304;DHT22;2674;49.722;10.892;2023-08-30T16:13:30;21.50;1.00